sensor_id;sensor_type;location;lat;lon;timestamp;P1;durP1;ratioP1;P2;durP2;ratioP2
9819;SDS011;4949;48.482;9.206;2022-09-09T00:03:53;6.60;;;2.00;;
9819;SDS011;4949;48.482;9.206;2022-09-09T00:09:12;4.73;;;1.70;;
9819;SDS011;4949;48.482;9.206;2022-09-09T00:19:30;3.93;;;1.70;;
9819;SDS011;4949;48.482;9.206;2022-09-09T00:24:39;3.67;;;2.70;;
9819;SDS011;4949;48.482;9.206;2022-09-09T00:29:45;3.40;;;2.30;;
9819;SDS011;4949;48.482;9.206;2022-09-09T00:39:55;3.67;;;1.90;;
9819;SDS011;4949;48.482;9.206;2022-09-09T00:55:53;4.60;;;2.20;;
9819;SDS011;4949;48.482;9.206;2022-09-09T01:01:12;6.50;;;2.40;;
9819;SDS011;4949;48.482;9.206;2022-09-09T01:06:15;2.47;;;1.83;;
9819;SDS011;4949;48.482;9.206;2022-09-09T01:11:26;4.87;;;2.20;;
9819;SDS011;4949;48.482;9.206;2022-09-09T01:16:50;2.47;;;2.20;;
9819;SDS011;4949;48.482;9.206;2022-09-09T01:22:06;3.10;;;2.13;;
9819;SDS011;4949;48.482;9.206;2022-09-09T01:27:34;2.90;;;2.30;;
9819;SDS011;4949;48.482;9.206;2022-09-09T01:32:37;3.27;;;2.60;;
9819;SDS011;4949;48.482;9.206;2022-09-09T01:37:43;2.17;;;1.97;;
9819;SDS011;4949;48.482;9.206;2022-09-09T01:42:44;2.57;;;1.77;;
9819;SDS011;4949;48.482;9.206;2022-09-09T01:47:46;4.00;;;2.53;;
9819;SDS011;4949;48.482;9.206;2022-09-09T01:52:48;5.20;;;2.63;;
9819;SDS011;4949;48.482;9.206;2022-09-09T02:03:17;3.47;;;2.47;;
9819;SDS011;4949;48.482;9.206;2022-09-09T02:08:23;2.70;;;2.43;;
9819;SDS011;4949;48.482;9.206;2022-09-09T02:13:26;2.33;;;2.13;;
9819;SDS011;4949;48.482;9.206;2022-09-09T02:18:30;3.70;;;2.40;;
9819;SDS011;4949;48.482;9.206;2022-09-09T02:23:37;5.30;;;2.43;;
9819;SDS011;4949;48.482;9.206;2022-09-09T02:28:39;3.10;;;2.80;;
9819;SDS011;4949;48.482;9.206;2022-09-09T02:33:42;3.07;;;2.37;;
9819;SDS011;4949;48.482;9.206;2022-09-09T02:38:47;2.57;;;1.83;;
9819;SDS011;4949;48.482;9.206;2022-09-09T02:43:53;2.80;;;1.97;;
9819;SDS011;4949;48.482;9.206;2022-09-09T02:49:00;2.80;;;2.07;;
9819;SDS011;4949;48.482;9.206;2022-09-09T02:59:08;3.03;;;2.00;;
9819;SDS011;4949;48.482;9.206;2022-09-09T03:04:09;3.00;;;2.30;;
9819;SDS011;4949;48.482;9.206;2022-09-09T03:09:12;3.10;;;2.10;;
9819;SDS011;4949;48.482;9.206;2022-09-09T03:14:13;2.33;;;1.90;;
9819;SDS011;4949;48.482;9.206;2022-09-09T03:19:13;3.55;;;2.20;;
9819;SDS011;4949;48.482;9.206;2022-09-09T03:24:13;3.33;;;2.20;;
9819;SDS011;4949;48.482;9.206;2022-09-09T03:29:14;3.43;;;2.13;;
9819;SDS011;4949;48.482;9.206;2022-09-09T03:34:14;3.93;;;2.37;;
9819;SDS011;4949;48.482;9.206;2022-09-09T03:39:15;6.17;;;2.90;;
9819;SDS011;4949;48.482;9.206;2022-09-09T03:44:15;2.50;;;2.30;;
9819;SDS011;4949;48.482;9.206;2022-09-09T03:49:15;2.00;;;1.80;;
9819;SDS011;4949;48.482;9.206;2022-09-09T03:54:16;2.53;;;2.30;;
9819;SDS011;4949;48.482;9.206;2022-09-09T03:59:19;2.50;;;1.60;;
9819;SDS011;4949;48.482;9.206;2022-09-09T04:04:21;3.00;;;2.03;;
9819;SDS011;4949;48.482;9.206;2022-09-09T04:09:22;1.90;;;1.73;;
9819;SDS011;4949;48.482;9.206;2022-09-09T04:14:23;3.20;;;2.00;;
9819;SDS011;4949;48.482;9.206;2022-09-09T04:19:23;2.60;;;2.10;;
9819;SDS011;4949;48.482;9.206;2022-09-09T04:24:23;3.53;;;2.10;;
9819;SDS011;4949;48.482;9.206;2022-09-09T04:29:24;3.97;;;2.00;;
9819;SDS011;4949;48.482;9.206;2022-09-09T04:34:24;2.80;;;2.10;;
9819;SDS011;4949;48.482;9.206;2022-09-09T04:39:27;2.10;;;1.83;;
9819;SDS011;4949;48.482;9.206;2022-09-09T04:44:27;1.90;;;1.70;;
9819;SDS011;4949;48.482;9.206;2022-09-09T04:49:30;2.67;;;2.00;;
9819;SDS011;4949;48.482;9.206;2022-09-09T04:54:32;2.47;;;2.27;;
9819;SDS011;4949;48.482;9.206;2022-09-09T04:59:35;3.70;;;1.90;;
9819;SDS011;4949;48.482;9.206;2022-09-09T05:04:39;3.23;;;2.40;;
9819;SDS011;4949;48.482;9.206;2022-09-09T05:09:39;2.27;;;1.77;;
9819;SDS011;4949;48.482;9.206;2022-09-09T05:14:39;2.73;;;2.00;;
9819;SDS011;4949;48.482;9.206;2022-09-09T05:19:42;4.87;;;2.00;;
9819;SDS011;4949;48.482;9.206;2022-09-09T05:24:45;2.57;;;1.70;;
9819;SDS011;4949;48.482;9.206;2022-09-09T05:29:46;4.10;;;2.20;;
9819;SDS011;4949;48.482;9.206;2022-09-09T05:34:46;1.90;;;1.80;;
9819;SDS011;4949;48.482;9.206;2022-09-09T05:39:46;2.75;;;2.50;;
9819;SDS011;4949;48.482;9.206;2022-09-09T05:44:47;2.53;;;1.90;;
9819;SDS011;4949;48.482;9.206;2022-09-09T05:49:47;2.30;;;2.10;;
9819;SDS011;4949;48.482;9.206;2022-09-09T05:54:49;2.83;;;2.00;;
9819;SDS011;4949;48.482;9.206;2022-09-09T05:59:49;4.30;;;2.50;;
9819;SDS011;4949;48.482;9.206;2022-09-09T06:04:50;4.37;;;2.70;;
9819;SDS011;4949;48.482;9.206;2022-09-09T06:09:50;2.60;;;1.80;;
9819;SDS011;4949;48.482;9.206;2022-09-09T06:14:52;4.73;;;2.40;;
9819;SDS011;4949;48.482;9.206;2022-09-09T06:19:53;2.27;;;2.07;;
9819;SDS011;4949;48.482;9.206;2022-09-09T06:24:53;4.77;;;2.30;;
9819;SDS011;4949;48.482;9.206;2022-09-09T06:29:53;4.30;;;2.33;;
9819;SDS011;4949;48.482;9.206;2022-09-09T06:34:54;2.00;;;1.80;;
9819;SDS011;4949;48.482;9.206;2022-09-09T06:39:54;3.10;;;2.13;;
9819;SDS011;4949;48.482;9.206;2022-09-09T06:44:54;3.00;;;2.00;;
9819;SDS011;4949;48.482;9.206;2022-09-09T06:49:57;4.30;;;1.80;;
9819;SDS011;4949;48.482;9.206;2022-09-09T06:55:00;2.40;;;2.20;;
9819;SDS011;4949;48.482;9.206;2022-09-09T07:00:00;2.70;;;2.20;;
9819;SDS011;4949;48.482;9.206;2022-09-09T07:05:01;3.20;;;2.23;;
9819;SDS011;4949;48.482;9.206;2022-09-09T07:10:01;5.63;;;2.30;;
9819;SDS011;4949;48.482;9.206;2022-09-09T07:15:03;3.80;;;2.23;;
9819;SDS011;4949;48.482;9.206;2022-09-09T07:20:06;3.30;;;2.07;;
9819;SDS011;4949;48.482;9.206;2022-09-09T07:25:07;2.87;;;2.00;;
9819;SDS011;4949;48.482;9.206;2022-09-09T07:30:08;5.73;;;2.10;;
9819;SDS011;4949;48.482;9.206;2022-09-09T07:35:08;5.23;;;2.10;;
9819;SDS011;4949;48.482;9.206;2022-09-09T07:40:09;2.40;;;2.17;;
9819;SDS011;4949;48.482;9.206;2022-09-09T07:45:10;3.60;;;1.97;;
9819;SDS011;4949;48.482;9.206;2022-09-09T07:50:14;3.40;;;2.40;;
9819;SDS011;4949;48.482;9.206;2022-09-09T07:55:16;3.73;;;2.30;;
9819;SDS011;4949;48.482;9.206;2022-09-09T08:00:17;4.27;;;2.80;;
9819;SDS011;4949;48.482;9.206;2022-09-09T08:05:22;2.43;;;2.00;;
9819;SDS011;4949;48.482;9.206;2022-09-09T08:10:22;3.10;;;2.20;;
9819;SDS011;4949;48.482;9.206;2022-09-09T08:15:23;5.17;;;2.17;;
9819;SDS011;4949;48.482;9.206;2022-09-09T08:20:23;4.23;;;2.00;;
9819;SDS011;4949;48.482;9.206;2022-09-09T08:25:23;6.07;;;2.23;;
9819;SDS011;4949;48.482;9.206;2022-09-09T08:30:24;3.57;;;1.80;;
9819;SDS011;4949;48.482;9.206;2022-09-09T08:35:24;3.20;;;1.90;;
9819;SDS011;4949;48.482;9.206;2022-09-09T08:40:26;3.87;;;2.20;;
9819;SDS011;4949;48.482;9.206;2022-09-09T08:45:33;1.80;;;1.60;;
9819;SDS011;4949;48.482;9.206;2022-09-09T08:50:48;2.37;;;1.43;;
9819;SDS011;4949;48.482;9.206;2022-09-09T08:55:50;4.10;;;1.83;;
9819;SDS011;4949;48.482;9.206;2022-09-09T09:06:30;1.57;;;1.47;;
9819;SDS011;4949;48.482;9.206;2022-09-09T09:11:37;2.10;;;1.70;;
9819;SDS011;4949;48.482;9.206;2022-09-09T09:16:41;2.27;;;1.47;;
9819;SDS011;4949;48.482;9.206;2022-09-09T09:21:57;2.57;;;1.70;;
9819;SDS011;4949;48.482;9.206;2022-09-09T09:27:16;2.53;;;1.63;;
9819;SDS011;4949;48.482;9.206;2022-09-09T09:32:21;3.20;;;2.10;;
9819;SDS011;4949;48.482;9.206;2022-09-09T09:37:30;6.03;;;1.90;;
9819;SDS011;4949;48.482;9.206;2022-09-09T09:42:32;2.27;;;1.90;;
9819;SDS011;4949;48.482;9.206;2022-09-09T09:47:32;3.90;;;1.80;;
9819;SDS011;4949;48.482;9.206;2022-09-09T09:52:35;2.47;;;2.27;;
9819;SDS011;4949;48.482;9.206;2022-09-09T09:57:40;3.37;;;1.80;;
9819;SDS011;4949;48.482;9.206;2022-09-09T10:02:42;3.47;;;2.17;;
9819;SDS011;4949;48.482;9.206;2022-09-09T10:07:44;5.20;;;2.10;;
9819;SDS011;4949;48.482;9.206;2022-09-09T10:39:32;3.93;;;1.40;;
9819;SDS011;4949;48.482;9.206;2022-09-09T10:50:28;2.07;;;1.60;;
9819;SDS011;4949;48.482;9.206;2022-09-09T10:55:37;1.53;;;1.40;;
9819;SDS011;4949;48.482;9.206;2022-09-09T11:00:45;2.03;;;1.60;;
9819;SDS011;4949;48.482;9.206;2022-09-09T11:05:49;2.60;;;1.50;;
9819;SDS011;4949;48.482;9.206;2022-09-09T11:16:00;2.60;;;1.50;;
9819;SDS011;4949;48.482;9.206;2022-09-09T11:21:09;2.30;;;1.47;;
9819;SDS011;4949;48.482;9.206;2022-09-09T11:26:30;2.70;;;1.60;;
9819;SDS011;4949;48.482;9.206;2022-09-09T11:41:52;2.40;;;1.53;;
9819;SDS011;4949;48.482;9.206;2022-09-09T11:46:53;3.00;;;1.20;;
9819;SDS011;4949;48.482;9.206;2022-09-09T11:51:54;1.73;;;1.33;;
9819;SDS011;4949;48.482;9.206;2022-09-09T11:56:59;1.27;;;1.10;;
9819;SDS011;4949;48.482;9.206;2022-09-09T12:02:02;4.73;;;1.30;;
9819;SDS011;4949;48.482;9.206;2022-09-09T12:22:27;2.20;;;1.30;;
9819;SDS011;4949;48.482;9.206;2022-09-09T12:27:43;1.63;;;1.37;;
9819;SDS011;4949;48.482;9.206;2022-09-09T12:32:48;3.13;;;1.73;;
9819;SDS011;4949;48.482;9.206;2022-09-09T12:38:02;5.03;;;1.37;;
9819;SDS011;4949;48.482;9.206;2022-09-09T12:43:17;1.20;;;1.10;;
9819;SDS011;4949;48.482;9.206;2022-09-09T12:48:19;2.47;;;1.63;;
9819;SDS011;4949;48.482;9.206;2022-09-09T12:53:30;2.97;;;1.70;;
9819;SDS011;4949;48.482;9.206;2022-09-09T12:58:35;6.37;;;1.50;;
9819;SDS011;4949;48.482;9.206;2022-09-09T13:03:42;1.63;;;1.40;;
9819;SDS011;4949;48.482;9.206;2022-09-09T13:08:43;1.97;;;1.70;;
9819;SDS011;4949;48.482;9.206;2022-09-09T13:13:43;1.83;;;1.33;;
9819;SDS011;4949;48.482;9.206;2022-09-09T13:18:55;2.43;;;1.30;;
9819;SDS011;4949;48.482;9.206;2022-09-09T13:23:56;5.13;;;1.57;;
9819;SDS011;4949;48.482;9.206;2022-09-09T13:29:18;1.67;;;1.23;;
9819;SDS011;4949;48.482;9.206;2022-09-09T13:34:26;3.53;;;1.50;;
9819;SDS011;4949;48.482;9.206;2022-09-09T13:39:30;2.87;;;1.43;;
9819;SDS011;4949;48.482;9.206;2022-09-09T13:44:36;3.33;;;1.43;;
9819;SDS011;4949;48.482;9.206;2022-09-09T13:49:38;3.10;;;1.40;;
9819;SDS011;4949;48.482;9.206;2022-09-09T13:54:39;4.00;;;1.50;;
9819;SDS011;4949;48.482;9.206;2022-09-09T13:59:40;1.53;;;1.27;;
9819;SDS011;4949;48.482;9.206;2022-09-09T14:04:43;4.27;;;1.50;;
9819;SDS011;4949;48.482;9.206;2022-09-09T14:09:43;2.17;;;1.50;;
9819;SDS011;4949;48.482;9.206;2022-09-09T14:14:45;2.13;;;1.40;;
9819;SDS011;4949;48.482;9.206;2022-09-09T14:19:47;2.20;;;1.30;;
9819;SDS011;4949;48.482;9.206;2022-09-09T14:24:48;2.10;;;1.30;;
9819;SDS011;4949;48.482;9.206;2022-09-09T14:29:51;3.10;;;1.30;;
9819;SDS011;4949;48.482;9.206;2022-09-09T14:34:54;1.53;;;1.30;;
9819;SDS011;4949;48.482;9.206;2022-09-09T14:39:55;2.23;;;1.30;;
9819;SDS011;4949;48.482;9.206;2022-09-09T14:44:56;4.40;;;1.57;;
9819;SDS011;4949;48.482;9.206;2022-09-09T14:49:58;4.80;;;1.30;;
9819;SDS011;4949;48.482;9.206;2022-09-09T14:55:00;3.80;;;1.40;;
9819;SDS011;4949;48.482;9.206;2022-09-09T15:00:02;1.70;;;1.53;;
9819;SDS011;4949;48.482;9.206;2022-09-09T15:05:04;2.40;;;1.10;;
9819;SDS011;4949;48.482;9.206;2022-09-09T15:10:05;2.80;;;1.30;;
9819;SDS011;4949;48.482;9.206;2022-09-09T15:15:06;3.23;;;1.30;;
9819;SDS011;4949;48.482;9.206;2022-09-09T15:20:07;2.23;;;1.50;;
9819;SDS011;4949;48.482;9.206;2022-09-09T15:25:08;2.13;;;1.30;;
9819;SDS011;4949;48.482;9.206;2022-09-09T15:30:08;2.00;;;1.40;;
9819;SDS011;4949;48.482;9.206;2022-09-09T15:35:09;8.33;;;1.57;;
9819;SDS011;4949;48.482;9.206;2022-09-09T15:40:10;3.30;;;1.33;;
9819;SDS011;4949;48.482;9.206;2022-09-09T15:45:10;3.30;;;1.50;;
9819;SDS011;4949;48.482;9.206;2022-09-09T15:50:11;1.90;;;1.25;;
9819;SDS011;4949;48.482;9.206;2022-09-09T15:55:11;2.07;;;1.17;;
9819;SDS011;4949;48.482;9.206;2022-09-09T16:00:12;1.20;;;1.10;;
9819;SDS011;4949;48.482;9.206;2022-09-09T16:05:13;3.03;;;1.23;;
9819;SDS011;4949;48.482;9.206;2022-09-09T16:10:14;1.10;;;1.00;;
9819;SDS011;4949;48.482;9.206;2022-09-09T16:15:14;1.40;;;1.30;;
9819;SDS011;4949;48.482;9.206;2022-09-09T16:20:15;2.37;;;1.10;;
9819;SDS011;4949;48.482;9.206;2022-09-09T16:25:15;1.67;;;1.13;;
9819;SDS011;4949;48.482;9.206;2022-09-09T16:30:15;1.43;;;1.10;;
9819;SDS011;4949;48.482;9.206;2022-09-09T16:35:16;1.93;;;1.30;;
9819;SDS011;4949;48.482;9.206;2022-09-09T16:40:16;1.10;;;1.00;;
9819;SDS011;4949;48.482;9.206;2022-09-09T16:45:17;2.03;;;1.10;;
9819;SDS011;4949;48.482;9.206;2022-09-09T16:50:22;3.70;;;1.20;;
9819;SDS011;4949;48.482;9.206;2022-09-09T16:55:24;1.40;;;1.30;;
9819;SDS011;4949;48.482;9.206;2022-09-09T17:00:29;2.30;;;1.17;;
9819;SDS011;4949;48.482;9.206;2022-09-09T17:05:30;1.30;;;1.20;;
9819;SDS011;4949;48.482;9.206;2022-09-09T17:10:33;2.60;;;1.40;;
9819;SDS011;4949;48.482;9.206;2022-09-09T17:15:39;2.63;;;1.60;;
9819;SDS011;4949;48.482;9.206;2022-09-09T17:20:43;1.77;;;1.50;;
9819;SDS011;4949;48.482;9.206;2022-09-09T17:25:45;2.20;;;1.50;;
9819;SDS011;4949;48.482;9.206;2022-09-09T17:30:58;2.60;;;1.63;;
9819;SDS011;4949;48.482;9.206;2022-09-09T17:36:05;1.40;;;1.30;;
9819;SDS011;4949;48.482;9.206;2022-09-09T17:46:15;1.60;;;1.40;;
9819;SDS011;4949;48.482;9.206;2022-09-09T17:51:24;4.03;;;2.40;;
9819;SDS011;4949;48.482;9.206;2022-09-09T17:56:28;6.83;;;1.77;;
9819;SDS011;4949;48.482;9.206;2022-09-09T18:01:33;1.83;;;1.73;;
9819;SDS011;4949;48.482;9.206;2022-09-09T18:06:36;3.13;;;1.63;;
9819;SDS011;4949;48.482;9.206;2022-09-09T18:11:42;6.60;;;1.73;;
9819;SDS011;4949;48.482;9.206;2022-09-09T18:16:44;2.17;;;1.40;;
9819;SDS011;4949;48.482;9.206;2022-09-09T18:21:46;1.57;;;1.47;;
9819;SDS011;4949;48.482;9.206;2022-09-09T18:26:51;2.47;;;1.50;;
9819;SDS011;4949;48.482;9.206;2022-09-09T18:31:56;2.50;;;1.40;;
9819;SDS011;4949;48.482;9.206;2022-09-09T18:36:58;3.20;;;1.50;;
9819;SDS011;4949;48.482;9.206;2022-09-09T18:42:01;2.90;;;1.50;;
9819;SDS011;4949;48.482;9.206;2022-09-09T18:47:02;3.43;;;1.50;;
9819;SDS011;4949;48.482;9.206;2022-09-09T18:52:06;2.23;;;1.57;;
9819;SDS011;4949;48.482;9.206;2022-09-09T18:57:09;1.30;;;1.20;;
9819;SDS011;4949;48.482;9.206;2022-09-09T19:02:09;1.77;;;1.40;;
9819;SDS011;4949;48.482;9.206;2022-09-09T19:07:13;1.20;;;1.10;;
9819;SDS011;4949;48.482;9.206;2022-09-09T19:12:13;1.70;;;1.60;;
9819;SDS011;4949;48.482;9.206;2022-09-09T19:17:13;1.57;;;1.30;;
9819;SDS011;4949;48.482;9.206;2022-09-09T19:22:16;3.30;;;1.50;;
9819;SDS011;4949;48.482;9.206;2022-09-09T19:27:18;1.50;;;1.40;;
9819;SDS011;4949;48.482;9.206;2022-09-09T19:32:19;2.70;;;1.43;;
9819;SDS011;4949;48.482;9.206;2022-09-09T19:37:19;1.47;;;1.37;;
9819;SDS011;4949;48.482;9.206;2022-09-09T19:42:21;2.00;;;1.60;;
9819;SDS011;4949;48.482;9.206;2022-09-09T19:47:22;2.77;;;1.60;;
9819;SDS011;4949;48.482;9.206;2022-09-09T19:52:23;3.43;;;1.53;;
9819;SDS011;4949;48.482;9.206;2022-09-09T19:57:26;2.20;;;2.00;;
9819;SDS011;4949;48.482;9.206;2022-09-09T20:02:29;3.97;;;1.70;;
9819;SDS011;4949;48.482;9.206;2022-09-09T20:07:30;2.80;;;2.00;;
9819;SDS011;4949;48.482;9.206;2022-09-09T20:12:31;1.93;;;1.40;;
9819;SDS011;4949;48.482;9.206;2022-09-09T20:17:31;4.20;;;1.50;;
9819;SDS011;4949;48.482;9.206;2022-09-09T20:22:31;3.93;;;1.50;;
9819;SDS011;4949;48.482;9.206;2022-09-09T20:27:32;2.57;;;1.43;;
9819;SDS011;4949;48.482;9.206;2022-09-09T20:32:35;2.27;;;2.07;;
9819;SDS011;4949;48.482;9.206;2022-09-09T20:37:35;2.23;;;1.60;;
9819;SDS011;4949;48.482;9.206;2022-09-09T20:42:36;3.13;;;1.87;;
9819;SDS011;4949;48.482;9.206;2022-09-09T20:47:36;2.57;;;1.70;;
9819;SDS011;4949;48.482;9.206;2022-09-09T20:52:39;3.50;;;2.10;;
9819;SDS011;4949;48.482;9.206;2022-09-09T20:57:39;2.10;;;1.50;;
9819;SDS011;4949;48.482;9.206;2022-09-09T21:02:40;8.87;;;1.90;;
9819;SDS011;4949;48.482;9.206;2022-09-09T21:07:42;2.60;;;1.80;;
9819;SDS011;4949;48.482;9.206;2022-09-09T21:12:43;2.90;;;1.57;;
9819;SDS011;4949;48.482;9.206;2022-09-09T21:17:44;2.27;;;1.67;;
9819;SDS011;4949;48.482;9.206;2022-09-09T21:22:45;1.93;;;1.53;;
9819;SDS011;4949;48.482;9.206;2022-09-09T21:27:46;1.83;;;1.30;;
9819;SDS011;4949;48.482;9.206;2022-09-09T21:32:46;2.90;;;1.90;;
9819;SDS011;4949;48.482;9.206;2022-09-09T21:37:46;3.63;;;1.87;;
9819;SDS011;4949;48.482;9.206;2022-09-09T21:42:49;3.50;;;2.00;;
9819;SDS011;4949;48.482;9.206;2022-09-09T21:47:54;3.10;;;2.00;;
9819;SDS011;4949;48.482;9.206;2022-09-09T21:52:55;1.87;;;1.40;;
9819;SDS011;4949;48.482;9.206;2022-09-09T21:57:55;1.73;;;1.60;;
9819;SDS011;4949;48.482;9.206;2022-09-09T22:03:01;2.93;;;1.60;;
9819;SDS011;4949;48.482;9.206;2022-09-09T22:08:02;2.47;;;1.97;;
9819;SDS011;4949;48.482;9.206;2022-09-09T22:13:06;1.33;;;1.10;;
9819;SDS011;4949;48.482;9.206;2022-09-09T22:18:09;3.30;;;2.10;;
9819;SDS011;4949;48.482;9.206;2022-09-09T22:23:11;1.70;;;1.60;;
9819;SDS011;4949;48.482;9.206;2022-09-09T22:28:11;2.07;;;1.40;;
9819;SDS011;4949;48.482;9.206;2022-09-09T22:33:16;2.50;;;2.00;;
9819;SDS011;4949;48.482;9.206;2022-09-09T22:38:19;2.60;;;1.60;;
9819;SDS011;4949;48.482;9.206;2022-09-09T22:43:21;3.03;;;1.70;;
9819;SDS011;4949;48.482;9.206;2022-09-09T22:48:21;1.40;;;1.30;;
9819;SDS011;4949;48.482;9.206;2022-09-09T22:53:23;3.67;;;2.00;;
9819;SDS011;4949;48.482;9.206;2022-09-09T22:58:25;3.00;;;1.63;;
9819;SDS011;4949;48.482;9.206;2022-09-09T23:03:29;1.37;;;1.27;;
9819;SDS011;4949;48.482;9.206;2022-09-09T23:08:33;2.63;;;1.40;;
9819;SDS011;4949;48.482;9.206;2022-09-09T23:13:38;1.70;;;1.30;;
9819;SDS011;4949;48.482;9.206;2022-09-09T23:18:42;1.93;;;1.73;;
9819;SDS011;4949;48.482;9.206;2022-09-09T23:23:43;1.70;;;1.60;;
9819;SDS011;4949;48.482;9.206;2022-09-09T23:28:46;2.87;;;1.30;;
9819;SDS011;4949;48.482;9.206;2022-09-09T23:33:49;1.53;;;1.10;;
9819;SDS011;4949;48.482;9.206;2022-09-09T23:38:52;1.43;;;1.33;;
9819;SDS011;4949;48.482;9.206;2022-09-09T23:43:55;4.10;;;1.40;;
9819;SDS011;4949;48.482;9.206;2022-09-09T23:48:56;1.43;;;1.30;;
9819;SDS011;4949;48.482;9.206;2022-09-09T23:53:57;3.10;;;1.40;;
9819;SDS011;4949;48.482;9.206;2022-09-09T23:59:00;1.67;;;1.30;;
